Swepsonville, North Carolina
Current Conditions -  °F | °C
As of 4:54 AM on Sunday 21 Dec 2014 (Local Time) from KBUY Reporting Station
Haze Haze  
Wind Chill: 37°   Ceiling: 2700
Heat Index: 37°   Visibility: 6mi
Dew Point: 34°   Wind: 0mph
Humidity: 89%   Direction: NA
Pressure: 30.24"   Gusts: NA
Location:  36.03°N, 79.36°W
Report Text: KBUY 210954Z AUTO 00000KT 6SM BR OVC027 03/01 A3024 RMK AO2 SLP244 T00280011
Loading
Personal Weather Stations






























Interactive Weather Map New forecast layout! Learn more

10-Day Weather Forecast

Advertisements
Track Severe Weather on mobile